Narrandera, New South Wales

1:27 AM AEDT on November 25, 2014 (GMT +1100)
INEWSOUT154 | Change Station
CLOSE
Current Station
Personal Weather Station
Location: Leeton, NEW SOUTH WALES
Elevation: 436 ft
Nearby Weather Stations

Elev 436 ft 34.54 °S, 146.40 °E | Updated 2 minutes ago

Mostly Cloudy
Mostly Cloudy
63.5 °F
Feels Like 63.5 °F
N
0.0
Wind Variable Wind from North
Gusts 0.0 mph

Today
High -- | Low -- °F
--% Chance of Precip.
Yesterday
High -- | Low -- °F
Precip. -- in
5:55 AM 8:06 PM
Waxing Crescent, 5% visible
Pressure 29.86 in
Visibility 6.2 miles
Clouds Scattered Clouds 1600 ft
Mostly Cloudy 3200 ft
Mostly Cloudy 5200 ft
Dew Point 52 °F
Humidity 66%
Rainfall 0.00 in
Snow Depth Not available.
UV 0.0 out of 12
Pollen Not available.
Air Quality Not available.
Flu Activity Not available.
SPECI YSWG 241413Z AUTO 24015KT 9999 // SCT016 BKN032 BKN052 19/17 Q1011

More Conditions Fewer Conditions

Pressure 29.86 in
Visibility 6.2 miles
Clouds Scattered Clouds 1600 ft
Mostly Cloudy 3200 ft
Mostly Cloudy 5200 ft
Dew Point 52 °F
Humidity 66%
Rainfall 0.00 in
Snow Depth Not available.
UV 0.0 out of 12
Pollen Not available.
Air Quality Not available.
Flu Activity Not available.
SPECI YSWG 241413Z AUTO 24015KT 9999 // SCT016 BKN032 BKN052 19/17 Q1011

More Conditions Fewer Conditions

10-Day Weather Forecast

Almanac

Astronomy

Nov. 25, 2014 Rise Set
Actual Time
Civil Twilight
Nautical Twilight
Astronomical Twilight
Moon
Length of Visible Light
Length of Day
Tomorrow will be .
, % of the Moon is Illuminated

Today's Extremes

Country Highs Country Lows

Community

WunderPhotos

Upload Photos

1,773,343 photos uploaded!

WunderBlogs® & News

Nearby

Air Quality

  Air Quality AQ Index Pollutant
Not available.

Snow Depth

Station Depth Elevation

Earthquake Activity

City Distance Mag. Time & Date
Minimum magnitude displayed is 2.5.

Coastal Water Temperatures

Place Temperature

Nearby Weather Stations